Haltwhistle, United Kingdom
Current Conditions -  °F | °C
As of 12:50 AM on Tuesday 21 Oct 2014 (Local Time) from EGOM Reporting Station
Broken Clouds Broken Clouds  
Wind Chill: 52°   Ceiling: 2300
Heat Index: 52°   Visibility: 6mi
Dew Point: 50°   Wind: 17mph
Humidity: 94%   Direction: 210°SSW
Pressure: 29.41"   Gusts: NA
Location:  54.97°N, 2.46°W
Report Text: EGOM 202350Z AUTO 21015KT 9999 FEW014/// BKN023/// 11/10 Q0996 RERA
Loading
Personal Weather Stations






























Interactive Weather Map
Tropical Storm Tracking
New forecast layout! Learn more

10-Day Weather Forecast

Advertisements
Track Severe Weather on mobile